Decatur, Texas
Current Conditions -  °F | °C
As of 6:55 AM on Saturday 25 Oct 2014 (Local Time) from KLUD Reporting Station
Clear Clear  
Wind Chill: 65°   Ceiling: Unl
Heat Index: 65°   Visibility: 10mi
Dew Point: 58°   Wind: 6mph
Humidity: 79%   Direction: 170°S
Pressure: 30.11"   Gusts: NA
Location:  33.23°N, 97.59°W
Report Text: KLUD 251155Z AUTO 17005KT 10SM CLR 18/15 A3011 RMK AO2 T01820145 10208 20178
Loading
Personal Weather Stations






























Interactive Weather Map New forecast layout! Learn more

10-Day Weather Forecast

Advertisements
Track Severe Weather on mobile